sensor_id;sensor_type;location;lat;lon;timestamp;P1;durP1;ratioP1;P2;durP2;ratioP2
12437;SDS011;6283;51.330;12.374;2023-02-18T00:01:54;5.63;;;2.90;;
12437;SDS011;6283;51.330;12.374;2023-02-18T00:04:20;3.87;;;2.60;;
12437;SDS011;6283;51.330;12.374;2023-02-18T00:06:45;6.47;;;2.60;;
12437;SDS011;6283;51.330;12.374;2023-02-18T00:09:11;6.17;;;2.43;;
12437;SDS011;6283;51.330;12.374;2023-02-18T00:11:37;2.37;;;1.70;;
12437;SDS011;6283;51.330;12.374;2023-02-18T00:14:04;6.90;;;1.90;;
12437;SDS011;6283;51.330;12.374;2023-02-18T00:16:35;4.73;;;1.60;;
12437;SDS011;6283;51.330;12.374;2023-02-18T00:19:03;4.13;;;1.80;;
12437;SDS011;6283;51.330;12.374;2023-02-18T00:21:31;3.63;;;1.30;;
12437;SDS011;6283;51.330;12.374;2023-02-18T00:23:58;3.10;;;1.30;;
12437;SDS011;6283;51.330;12.374;2023-02-18T00:26:24;3.00;;;0.87;;
12437;SDS011;6283;51.330;12.374;2023-02-18T00:28:50;4.47;;;1.30;;
12437;SDS011;6283;51.330;12.374;2023-02-18T00:31:27;2.27;;;1.20;;
12437;SDS011;6283;51.330;12.374;2023-02-18T00:34:00;4.47;;;1.03;;
12437;SDS011;6283;51.330;12.374;2023-02-18T00:36:27;3.97;;;1.10;;
12437;SDS011;6283;51.330;12.374;2023-02-18T00:38:54;3.30;;;1.07;;
12437;SDS011;6283;51.330;12.374;2023-02-18T00:41:22;5.80;;;1.23;;
12437;SDS011;6283;51.330;12.374;2023-02-18T00:43:50;4.43;;;1.17;;
12437;SDS011;6283;51.330;12.374;2023-02-18T00:46:15;4.77;;;1.67;;
12437;SDS011;6283;51.330;12.374;2023-02-18T00:48:42;5.60;;;1.40;;
12437;SDS011;6283;51.330;12.374;2023-02-18T00:51:07;2.83;;;1.30;;
12437;SDS011;6283;51.330;12.374;2023-02-18T00:53:34;6.13;;;1.10;;
12437;SDS011;6283;51.330;12.374;2023-02-18T00:56:00;4.03;;;1.10;;
12437;SDS011;6283;51.330;12.374;2023-02-18T00:58:26;3.80;;;1.53;;
12437;SDS011;6283;51.330;12.374;2023-02-18T01:00:52;6.80;;;1.07;;
12437;SDS011;6283;51.330;12.374;2023-02-18T01:03:19;3.63;;;1.50;;
12437;SDS011;6283;51.330;12.374;2023-02-18T01:05:46;4.57;;;1.10;;
12437;SDS011;6283;51.330;12.374;2023-02-18T01:08:14;3.93;;;1.33;;
12437;SDS011;6283;51.330;12.374;2023-02-18T01:10:41;3.53;;;1.20;;
12437;SDS011;6283;51.330;12.374;2023-02-18T01:13:09;5.67;;;1.30;;
12437;SDS011;6283;51.330;12.374;2023-02-18T01:15:36;5.43;;;1.20;;
12437;SDS011;6283;51.330;12.374;2023-02-18T01:18:02;6.00;;;1.00;;
12437;SDS011;6283;51.330;12.374;2023-02-18T01:20:28;2.53;;;1.10;;
12437;SDS011;6283;51.330;12.374;2023-02-18T01:22:55;4.97;;;1.30;;
12437;SDS011;6283;51.330;12.374;2023-02-18T01:25:20;5.20;;;1.20;;
12437;SDS011;6283;51.330;12.374;2023-02-18T01:27:46;3.47;;;1.03;;
12437;SDS011;6283;51.330;12.374;2023-02-18T01:30:14;4.20;;;1.20;;
12437;SDS011;6283;51.330;12.374;2023-02-18T01:32:41;5.57;;;1.43;;
12437;SDS011;6283;51.330;12.374;2023-02-18T01:35:09;2.73;;;1.40;;
12437;SDS011;6283;51.330;12.374;2023-02-18T01:37:37;4.70;;;1.10;;
12437;SDS011;6283;51.330;12.374;2023-02-18T01:40:03;1.23;;;1.00;;
12437;SDS011;6283;51.330;12.374;2023-02-18T01:42:30;4.53;;;1.20;;
12437;SDS011;6283;51.330;12.374;2023-02-18T01:50:38;2.00;;;1.20;;
12437;SDS011;6283;51.330;12.374;2023-02-18T01:53:15;6.37;;;1.23;;
12437;SDS011;6283;51.330;12.374;2023-02-18T01:55:44;4.07;;;1.10;;
12437;SDS011;6283;51.330;12.374;2023-02-18T01:58:11;4.77;;;1.37;;
12437;SDS011;6283;51.330;12.374;2023-02-18T02:00:37;6.97;;;1.63;;
12437;SDS011;6283;51.330;12.374;2023-02-18T02:03:03;5.27;;;1.10;;
12437;SDS011;6283;51.330;12.374;2023-02-18T02:05:29;4.70;;;1.33;;
12437;SDS011;6283;51.330;12.374;2023-02-18T02:07:56;2.70;;;1.50;;
12437;SDS011;6283;51.330;12.374;2023-02-18T02:10:23;3.90;;;1.80;;
12437;SDS011;6283;51.330;12.374;2023-02-18T02:13:12;4.53;;;1.53;;
12437;SDS011;6283;51.330;12.374;2023-02-18T02:16:03;3.57;;;1.47;;
12437;SDS011;6283;51.330;12.374;2023-02-18T02:18:38;5.40;;;1.63;;
12437;SDS011;6283;51.330;12.374;2023-02-18T02:27:09;4.43;;;1.50;;
12437;SDS011;6283;51.330;12.374;2023-02-18T02:32:36;8.40;;;1.77;;
12437;SDS011;6283;51.330;12.374;2023-02-18T02:35:29;5.47;;;1.50;;
12437;SDS011;6283;51.330;12.374;2023-02-18T02:38:14;3.47;;;1.27;;
12437;SDS011;6283;51.330;12.374;2023-02-18T02:43:55;3.77;;;1.60;;
12437;SDS011;6283;51.330;12.374;2023-02-18T02:46:26;4.63;;;1.50;;
12437;SDS011;6283;51.330;12.374;2023-02-18T02:49:17;8.73;;;1.67;;
12437;SDS011;6283;51.330;12.374;2023-02-18T02:52:13;4.17;;;1.33;;
12437;SDS011;6283;51.330;12.374;2023-02-18T02:54:43;7.30;;;1.50;;
12437;SDS011;6283;51.330;12.374;2023-02-18T02:59:38;5.40;;;1.43;;
12437;SDS011;6283;51.330;12.374;2023-02-18T03:13:56;5.83;;;1.60;;
12437;SDS011;6283;51.330;12.374;2023-02-18T03:16:57;6.60;;;1.80;;
12437;SDS011;6283;51.330;12.374;2023-02-18T03:19:28;7.20;;;1.63;;
12437;SDS011;6283;51.330;12.374;2023-02-18T03:22:12;4.20;;;1.93;;
12437;SDS011;6283;51.330;12.374;2023-02-18T03:24:43;3.87;;;1.53;;
12437;SDS011;6283;51.330;12.374;2023-02-18T03:27:19;8.53;;;2.03;;
12437;SDS011;6283;51.330;12.374;2023-02-18T03:29:59;5.77;;;1.80;;
12437;SDS011;6283;51.330;12.374;2023-02-18T03:32:30;8.63;;;1.73;;
12437;SDS011;6283;51.330;12.374;2023-02-18T03:35:04;5.80;;;1.43;;
12437;SDS011;6283;51.330;12.374;2023-02-18T03:37:33;4.43;;;1.80;;
12437;SDS011;6283;51.330;12.374;2023-02-18T03:40:03;9.83;;;2.23;;
12437;SDS011;6283;51.330;12.374;2023-02-18T03:42:30;7.50;;;1.63;;
12437;SDS011;6283;51.330;12.374;2023-02-18T03:44:57;5.63;;;1.80;;
12437;SDS011;6283;51.330;12.374;2023-02-18T03:47:23;5.20;;;1.40;;
12437;SDS011;6283;51.330;12.374;2023-02-18T03:49:49;8.40;;;1.67;;
12437;SDS011;6283;51.330;12.374;2023-02-18T03:52:15;7.07;;;1.43;;
12437;SDS011;6283;51.330;12.374;2023-02-18T03:54:40;7.23;;;1.70;;
12437;SDS011;6283;51.330;12.374;2023-02-18T03:57:06;10.60;;;1.87;;
12437;SDS011;6283;51.330;12.374;2023-02-18T03:59:32;5.93;;;1.30;;
12437;SDS011;6283;51.330;12.374;2023-02-18T04:01:58;5.87;;;1.50;;
12437;SDS011;6283;51.330;12.374;2023-02-18T04:04:24;4.47;;;1.77;;
12437;SDS011;6283;51.330;12.374;2023-02-18T04:06:50;4.70;;;1.63;;
12437;SDS011;6283;51.330;12.374;2023-02-18T04:09:16;5.07;;;1.97;;
12437;SDS011;6283;51.330;12.374;2023-02-18T04:11:42;5.93;;;1.87;;
12437;SDS011;6283;51.330;12.374;2023-02-18T04:14:08;4.27;;;1.83;;
12437;SDS011;6283;51.330;12.374;2023-02-18T04:16:37;6.13;;;1.73;;
12437;SDS011;6283;51.330;12.374;2023-02-18T04:19:02;4.57;;;2.10;;
12437;SDS011;6283;51.330;12.374;2023-02-18T04:21:28;5.83;;;2.00;;
12437;SDS011;6283;51.330;12.374;2023-02-18T04:23:53;2.60;;;1.60;;
12437;SDS011;6283;51.330;12.374;2023-02-18T04:26:19;7.37;;;2.03;;
12437;SDS011;6283;51.330;12.374;2023-02-18T04:28:45;8.70;;;1.97;;
12437;SDS011;6283;51.330;12.374;2023-02-18T04:31:10;6.83;;;2.07;;
12437;SDS011;6283;51.330;12.374;2023-02-18T04:33:36;6.93;;;2.30;;
12437;SDS011;6283;51.330;12.374;2023-02-18T04:36:01;5.00;;;1.80;;
12437;SDS011;6283;51.330;12.374;2023-02-18T04:38:27;8.00;;;2.23;;
12437;SDS011;6283;51.330;12.374;2023-02-18T04:40:53;6.30;;;2.47;;
12437;SDS011;6283;51.330;12.374;2023-02-18T04:43:19;9.27;;;2.60;;
12437;SDS011;6283;51.330;12.374;2023-02-18T04:45:44;5.77;;;2.30;;
12437;SDS011;6283;51.330;12.374;2023-02-18T04:48:10;4.37;;;2.03;;
12437;SDS011;6283;51.330;12.374;2023-02-18T04:50:35;6.37;;;2.53;;
12437;SDS011;6283;51.330;12.374;2023-02-18T04:53:01;3.67;;;2.07;;
12437;SDS011;6283;51.330;12.374;2023-02-18T04:55:27;5.67;;;2.83;;
12437;SDS011;6283;51.330;12.374;2023-02-18T04:57:52;10.93;;;3.03;;
12437;SDS011;6283;51.330;12.374;2023-02-18T05:00:18;6.63;;;3.00;;
12437;SDS011;6283;51.330;12.374;2023-02-18T05:02:44;7.13;;;3.20;;
12437;SDS011;6283;51.330;12.374;2023-02-18T05:05:10;7.27;;;3.80;;
12437;SDS011;6283;51.330;12.374;2023-02-18T05:07:36;10.10;;;4.30;;
12437;SDS011;6283;51.330;12.374;2023-02-18T05:10:03;10.53;;;3.97;;
12437;SDS011;6283;51.330;12.374;2023-02-18T05:12:29;10.30;;;5.13;;
12437;SDS011;6283;51.330;12.374;2023-02-18T05:14:54;6.90;;;4.63;;
12437;SDS011;6283;51.330;12.374;2023-02-18T05:17:20;11.07;;;5.13;;
12437;SDS011;6283;51.330;12.374;2023-02-18T05:19:46;7.13;;;4.37;;
12437;SDS011;6283;51.330;12.374;2023-02-18T05:22:11;9.53;;;5.30;;
12437;SDS011;6283;51.330;12.374;2023-02-18T05:24:37;9.50;;;5.03;;
12437;SDS011;6283;51.330;12.374;2023-02-18T05:27:02;11.60;;;5.03;;
12437;SDS011;6283;51.330;12.374;2023-02-18T05:29:28;12.37;;;6.57;;
12437;SDS011;6283;51.330;12.374;2023-02-18T05:31:54;10.53;;;5.43;;
12437;SDS011;6283;51.330;12.374;2023-02-18T05:34:19;10.90;;;5.77;;
12437;SDS011;6283;51.330;12.374;2023-02-18T05:36:45;8.93;;;5.73;;
12437;SDS011;6283;51.330;12.374;2023-02-18T05:39:11;11.17;;;6.83;;
12437;SDS011;6283;51.330;12.374;2023-02-18T05:41:36;9.87;;;6.27;;
12437;SDS011;6283;51.330;12.374;2023-02-18T05:44:02;12.40;;;6.30;;
12437;SDS011;6283;51.330;12.374;2023-02-18T05:46:46;9.63;;;6.17;;
12437;SDS011;6283;51.330;12.374;2023-02-18T05:49:12;11.77;;;6.57;;
12437;SDS011;6283;51.330;12.374;2023-02-18T05:51:38;10.80;;;6.70;;
12437;SDS011;6283;51.330;12.374;2023-02-18T05:54:03;16.13;;;7.90;;
12437;SDS011;6283;51.330;12.374;2023-02-18T05:56:29;10.50;;;6.60;;
12437;SDS011;6283;51.330;12.374;2023-02-18T05:58:55;10.87;;;6.87;;
12437;SDS011;6283;51.330;12.374;2023-02-18T06:01:20;13.03;;;7.10;;
12437;SDS011;6283;51.330;12.374;2023-02-18T06:03:46;17.00;;;7.50;;
12437;SDS011;6283;51.330;12.374;2023-02-18T06:06:11;13.70;;;7.80;;
12437;SDS011;6283;51.330;12.374;2023-02-18T06:08:37;12.00;;;7.37;;
12437;SDS011;6283;51.330;12.374;2023-02-18T06:11:03;10.67;;;6.63;;
12437;SDS011;6283;51.330;12.374;2023-02-18T06:13:29;11.73;;;7.27;;
12437;SDS011;6283;51.330;12.374;2023-02-18T06:15:54;11.83;;;7.30;;
12437;SDS011;6283;51.330;12.374;2023-02-18T06:18:20;11.27;;;7.60;;
12437;SDS011;6283;51.330;12.374;2023-02-18T06:20:46;14.43;;;8.37;;
12437;SDS011;6283;51.330;12.374;2023-02-18T06:23:13;15.30;;;7.23;;
12437;SDS011;6283;51.330;12.374;2023-02-18T06:25:38;10.93;;;7.03;;
12437;SDS011;6283;51.330;12.374;2023-02-18T06:28:05;10.23;;;6.87;;
12437;SDS011;6283;51.330;12.374;2023-02-18T06:30:30;11.20;;;7.17;;
12437;SDS011;6283;51.330;12.374;2023-02-18T06:32:56;16.47;;;8.00;;
12437;SDS011;6283;51.330;12.374;2023-02-18T06:35:22;13.83;;;7.53;;
12437;SDS011;6283;51.330;12.374;2023-02-18T06:37:47;10.30;;;6.83;;
12437;SDS011;6283;51.330;12.374;2023-02-18T06:40:13;14.13;;;7.70;;
12437;SDS011;6283;51.330;12.374;2023-02-18T06:42:38;11.90;;;7.47;;
12437;SDS011;6283;51.330;12.374;2023-02-18T06:45:04;11.80;;;7.10;;
12437;SDS011;6283;51.330;12.374;2023-02-18T06:47:31;12.53;;;7.07;;
12437;SDS011;6283;51.330;12.374;2023-02-18T06:49:57;15.30;;;7.57;;
12437;SDS011;6283;51.330;12.374;2023-02-18T06:52:22;14.30;;;7.57;;
12437;SDS011;6283;51.330;12.374;2023-02-18T06:54:48;14.13;;;7.10;;
12437;SDS011;6283;51.330;12.374;2023-02-18T06:57:14;12.43;;;7.73;;
12437;SDS011;6283;51.330;12.374;2023-02-18T06:59:39;10.63;;;6.53;;
12437;SDS011;6283;51.330;12.374;2023-02-18T07:02:05;12.77;;;7.57;;
12437;SDS011;6283;51.330;12.374;2023-02-18T07:04:31;11.57;;;7.00;;
12437;SDS011;6283;51.330;12.374;2023-02-18T07:06:56;13.30;;;7.00;;
12437;SDS011;6283;51.330;12.374;2023-02-18T07:09:22;9.70;;;5.97;;
12437;SDS011;6283;51.330;12.374;2023-02-18T07:11:47;11.03;;;6.57;;
12437;SDS011;6283;51.330;12.374;2023-02-18T07:14:13;11.50;;;6.83;;
12437;SDS011;6283;51.330;12.374;2023-02-18T07:16:39;10.60;;;6.20;;
12437;SDS011;6283;51.330;12.374;2023-02-18T07:19:04;9.43;;;5.80;;
12437;SDS011;6283;51.330;12.374;2023-02-18T07:21:30;11.77;;;6.50;;
12437;SDS011;6283;51.330;12.374;2023-02-18T07:23:55;9.33;;;5.90;;
12437;SDS011;6283;51.330;12.374;2023-02-18T07:26:21;10.03;;;6.43;;
12437;SDS011;6283;51.330;12.374;2023-02-18T07:28:46;13.03;;;6.83;;
12437;SDS011;6283;51.330;12.374;2023-02-18T07:31:12;10.53;;;6.17;;
12437;SDS011;6283;51.330;12.374;2023-02-18T07:33:38;10.33;;;6.17;;
12437;SDS011;6283;51.330;12.374;2023-02-18T07:36:03;11.23;;;6.17;;
12437;SDS011;6283;51.330;12.374;2023-02-18T07:38:29;11.07;;;6.00;;
12437;SDS011;6283;51.330;12.374;2023-02-18T07:40:56;10.70;;;5.93;;
12437;SDS011;6283;51.330;12.374;2023-02-18T07:43:22;9.60;;;6.30;;
12437;SDS011;6283;51.330;12.374;2023-02-18T07:45:48;10.77;;;6.17;;
12437;SDS011;6283;51.330;12.374;2023-02-18T07:48:14;8.83;;;5.60;;
12437;SDS011;6283;51.330;12.374;2023-02-18T07:50:41;9.37;;;6.27;;
12437;SDS011;6283;51.330;12.374;2023-02-18T07:53:09;8.33;;;5.53;;
12437;SDS011;6283;51.330;12.374;2023-02-18T07:55:36;9.50;;;5.93;;
12437;SDS011;6283;51.330;12.374;2023-02-18T07:58:24;10.07;;;5.70;;
12437;SDS011;6283;51.330;12.374;2023-02-18T08:00:51;10.07;;;6.07;;
12437;SDS011;6283;51.330;12.374;2023-02-18T08:03:19;8.03;;;5.40;;
12437;SDS011;6283;51.330;12.374;2023-02-18T08:05:49;8.60;;;5.10;;
12437;SDS011;6283;51.330;12.374;2023-02-18T08:08:16;6.50;;;4.77;;
12437;SDS011;6283;51.330;12.374;2023-02-18T08:10:44;6.97;;;5.10;;
12437;SDS011;6283;51.330;12.374;2023-02-18T08:13:11;7.00;;;4.83;;
12437;SDS011;6283;51.330;12.374;2023-02-18T08:15:37;5.33;;;4.17;;
12437;SDS011;6283;51.330;12.374;2023-02-18T08:18:03;6.00;;;4.00;;
12437;SDS011;6283;51.330;12.374;2023-02-18T08:20:30;4.03;;;3.50;;
12437;SDS011;6283;51.330;12.374;2023-02-18T08:22:55;4.27;;;3.60;;
12437;SDS011;6283;51.330;12.374;2023-02-18T08:25:21;4.60;;;3.00;;
12437;SDS011;6283;51.330;12.374;2023-02-18T08:27:47;2.90;;;2.37;;
12437;SDS011;6283;51.330;12.374;2023-02-18T08:30:12;2.73;;;2.43;;
12437;SDS011;6283;51.330;12.374;2023-02-18T08:32:38;2.83;;;2.50;;
12437;SDS011;6283;51.330;12.374;2023-02-18T08:35:04;2.03;;;1.83;;
12437;SDS011;6283;51.330;12.374;2023-02-18T08:37:31;2.17;;;1.73;;
12437;SDS011;6283;51.330;12.374;2023-02-18T08:39:57;2.03;;;1.83;;
12437;SDS011;6283;51.330;12.374;2023-02-18T08:42:23;2.00;;;1.57;;
12437;SDS011;6283;51.330;12.374;2023-02-18T08:44:48;2.80;;;1.37;;
12437;SDS011;6283;51.330;12.374;2023-02-18T08:47:14;2.20;;;1.40;;
12437;SDS011;6283;51.330;12.374;2023-02-18T08:49:39;1.10;;;1.00;;
12437;SDS011;6283;51.330;12.374;2023-02-18T08:52:05;1.33;;;1.10;;
12437;SDS011;6283;51.330;12.374;2023-02-18T08:54:31;1.10;;;1.10;;
12437;SDS011;6283;51.330;12.374;2023-02-18T08:56:56;0.70;;;0.70;;
12437;SDS011;6283;51.330;12.374;2023-02-18T08:59:22;0.90;;;0.90;;
12437;SDS011;6283;51.330;12.374;2023-02-18T09:01:49;0.60;;;0.60;;
12437;SDS011;6283;51.330;12.374;2023-02-18T09:04:15;0.97;;;0.87;;
12437;SDS011;6283;51.330;12.374;2023-02-18T09:06:40;0.93;;;0.60;;
12437;SDS011;6283;51.330;12.374;2023-02-18T09:09:06;1.20;;;0.60;;
12437;SDS011;6283;51.330;12.374;2023-02-18T09:11:32;0.70;;;0.70;;
12437;SDS011;6283;51.330;12.374;2023-02-18T09:13:58;0.83;;;0.77;;
12437;SDS011;6283;51.330;12.374;2023-02-18T09:16:24;0.70;;;0.70;;
12437;SDS011;6283;51.330;12.374;2023-02-18T09:18:52;0.63;;;0.63;;
12437;SDS011;6283;51.330;12.374;2023-02-18T09:21:17;0.70;;;0.70;;
12437;SDS011;6283;51.330;12.374;2023-02-18T09:23:45;2.00;;;0.60;;
12437;SDS011;6283;51.330;12.374;2023-02-18T09:26:11;0.40;;;0.40;;
12437;SDS011;6283;51.330;12.374;2023-02-18T09:28:38;0.60;;;0.50;;
12437;SDS011;6283;51.330;12.374;2023-02-18T09:31:05;0.60;;;0.60;;
12437;SDS011;6283;51.330;12.374;2023-02-18T09:33:36;1.17;;;0.80;;
12437;SDS011;6283;51.330;12.374;2023-02-18T09:36:03;0.93;;;0.90;;
12437;SDS011;6283;51.330;12.374;2023-02-18T09:38:29;0.63;;;0.63;;
12437;SDS011;6283;51.330;12.374;2023-02-18T09:40:55;0.63;;;0.50;;
12437;SDS011;6283;51.330;12.374;2023-02-18T09:43:26;0.93;;;0.57;;
12437;SDS011;6283;51.330;12.374;2023-02-18T09:45:57;1.00;;;0.50;;
12437;SDS011;6283;51.330;12.374;2023-02-18T09:48:26;0.90;;;0.40;;
12437;SDS011;6283;51.330;12.374;2023-02-18T09:50:55;1.57;;;0.80;;
12437;SDS011;6283;51.330;12.374;2023-02-18T09:53:21;0.63;;;0.63;;
12437;SDS011;6283;51.330;12.374;2023-02-18T09:55:48;0.67;;;0.53;;
12437;SDS011;6283;51.330;12.374;2023-02-18T09:58:18;1.90;;;0.70;;
12437;SDS011;6283;51.330;12.374;2023-02-18T10:00:56;1.00;;;0.60;;
12437;SDS011;6283;51.330;12.374;2023-02-18T10:03:24;0.43;;;0.43;;
12437;SDS011;6283;51.330;12.374;2023-02-18T10:08:34;0.60;;;0.60;;
12437;SDS011;6283;51.330;12.374;2023-02-18T10:11:02;0.37;;;0.37;;
12437;SDS011;6283;51.330;12.374;2023-02-18T10:13:29;0.57;;;0.50;;
12437;SDS011;6283;51.330;12.374;2023-02-18T10:15:57;0.40;;;0.40;;
12437;SDS011;6283;51.330;12.374;2023-02-18T10:18:24;1.60;;;0.50;;
12437;SDS011;6283;51.330;12.374;2023-02-18T10:20:57;0.40;;;0.40;;
12437;SDS011;6283;51.330;12.374;2023-02-18T10:23:29;0.23;;;0.23;;
12437;SDS011;6283;51.330;12.374;2023-02-18T10:25:58;0.30;;;0.30;;
12437;SDS011;6283;51.330;12.374;2023-02-18T10:28:26;0.10;;;0.10;;
12437;SDS011;6283;51.330;12.374;2023-02-18T10:30:59;0.30;;;0.30;;
12437;SDS011;6283;51.330;12.374;2023-02-18T10:39:10;0.40;;;0.40;;
12437;SDS011;6283;51.330;12.374;2023-02-18T10:47:45;0.10;;;0.10;;
12437;SDS011;6283;51.330;12.374;2023-02-18T10:50:37;0.20;;;0.20;;
12437;SDS011;6283;51.330;12.374;2023-02-18T10:53:11;0.20;;;0.20;;
12437;SDS011;6283;51.330;12.374;2023-02-18T10:55:44;0.30;;;0.20;;
12437;SDS011;6283;51.330;12.374;2023-02-18T11:01:15;0.30;;;0.30;;
12437;SDS011;6283;51.330;12.374;2023-02-18T11:03:45;0.13;;;0.13;;
12437;SDS011;6283;51.330;12.374;2023-02-18T11:06:24;0.93;;;0.30;;
12437;SDS011;6283;51.330;12.374;2023-02-18T11:08:55;0.20;;;0.20;;
12437;SDS011;6283;51.330;12.374;2023-02-18T11:11:37;0.20;;;0.20;;
12437;SDS011;6283;51.330;12.374;2023-02-18T11:14:05;0.13;;;0.13;;
12437;SDS011;6283;51.330;12.374;2023-02-18T11:16:50;0.17;;;0.17;;
12437;SDS011;6283;51.330;12.374;2023-02-18T11:24:32;0.40;;;0.40;;
12437;SDS011;6283;51.330;12.374;2023-02-18T11:27:09;0.20;;;0.20;;
12437;SDS011;6283;51.330;12.374;2023-02-18T11:29:37;0.10;;;0.10;;
12437;SDS011;6283;51.330;12.374;2023-02-18T11:32:03;0.23;;;0.23;;
12437;SDS011;6283;51.330;12.374;2023-02-18T11:34:34;0.40;;;0.40;;
12437;SDS011;6283;51.330;12.374;2023-02-18T11:37:11;0.30;;;0.30;;
12437;SDS011;6283;51.330;12.374;2023-02-18T11:39:43;0.37;;;0.37;;
12437;SDS011;6283;51.330;12.374;2023-02-18T11:42:14;0.30;;;0.30;;
12437;SDS011;6283;51.330;12.374;2023-02-18T11:44:58;0.40;;;0.40;;
12437;SDS011;6283;51.330;12.374;2023-02-18T11:47:26;0.40;;;0.40;;
12437;SDS011;6283;51.330;12.374;2023-02-18T11:52:34;0.27;;;0.27;;
12437;SDS011;6283;51.330;12.374;2023-02-18T11:57:45;0.30;;;0.27;;
12437;SDS011;6283;51.330;12.374;2023-02-18T12:02:46;0.30;;;0.30;;
12437;SDS011;6283;51.330;12.374;2023-02-18T12:05:15;0.30;;;0.30;;
12437;SDS011;6283;51.330;12.374;2023-02-18T12:07:49;0.30;;;0.30;;
12437;SDS011;6283;51.330;12.374;2023-02-18T12:10:22;0.30;;;0.30;;
12437;SDS011;6283;51.330;12.374;2023-02-18T12:15:36;0.40;;;0.30;;
12437;SDS011;6283;51.330;12.374;2023-02-18T12:18:14;0.40;;;0.40;;
12437;SDS011;6283;51.330;12.374;2023-02-18T12:21:01;0.20;;;0.20;;
12437;SDS011;6283;51.330;12.374;2023-02-18T12:29:04;0.77;;;0.23;;
12437;SDS011;6283;51.330;12.374;2023-02-18T12:34:25;0.40;;;0.40;;
12437;SDS011;6283;51.330;12.374;2023-02-18T12:37:37;0.40;;;0.40;;
12437;SDS011;6283;51.330;12.374;2023-02-18T12:48:36;0.30;;;0.30;;
12437;SDS011;6283;51.330;12.374;2023-02-18T12:51:47;0.20;;;0.20;;
12437;SDS011;6283;51.330;12.374;2023-02-18T13:05:43;0.43;;;0.30;;
12437;SDS011;6283;51.330;12.374;2023-02-18T13:16:37;0.50;;;0.50;;
12437;SDS011;6283;51.330;12.374;2023-02-18T13:21:47;0.50;;;0.50;;
12437;SDS011;6283;51.330;12.374;2023-02-18T13:24:26;1.40;;;0.40;;
12437;SDS011;6283;51.330;12.374;2023-02-18T13:26:59;1.40;;;0.50;;
12437;SDS011;6283;51.330;12.374;2023-02-18T13:32:37;0.57;;;0.57;;
12437;SDS011;6283;51.330;12.374;2023-02-18T13:35:16;0.83;;;0.50;;
12437;SDS011;6283;51.330;12.374;2023-02-18T13:40:39;0.57;;;0.57;;
12437;SDS011;6283;51.330;12.374;2023-02-18T13:48:32;2.43;;;0.40;;
12437;SDS011;6283;51.330;12.374;2023-02-18T13:51:04;1.67;;;0.53;;
12437;SDS011;6283;51.330;12.374;2023-02-18T13:53:37;0.70;;;0.60;;
12437;SDS011;6283;51.330;12.374;2023-02-18T13:56:08;0.60;;;0.50;;
12437;SDS011;6283;51.330;12.374;2023-02-18T14:06:11;0.57;;;0.57;;
12437;SDS011;6283;51.330;12.374;2023-02-18T14:08:39;1.17;;;0.43;;
12437;SDS011;6283;51.330;12.374;2023-02-18T14:13:38;0.77;;;0.60;;
12437;SDS011;6283;51.330;12.374;2023-02-18T14:16:05;0.87;;;0.63;;
12437;SDS011;6283;51.330;12.374;2023-02-18T14:18:33;0.70;;;0.70;;
12437;SDS011;6283;51.330;12.374;2023-02-18T14:21:21;1.00;;;0.60;;
12437;SDS011;6283;51.330;12.374;2023-02-18T14:23:59;0.67;;;0.60;;
12437;SDS011;6283;51.330;12.374;2023-02-18T14:26:30;0.53;;;0.53;;
12437;SDS011;6283;51.330;12.374;2023-02-18T14:29:10;0.70;;;0.70;;
12437;SDS011;6283;51.330;12.374;2023-02-18T14:31:47;1.80;;;0.90;;
12437;SDS011;6283;51.330;12.374;2023-02-18T14:34:31;1.03;;;0.60;;
12437;SDS011;6283;51.330;12.374;2023-02-18T14:42:54;0.60;;;0.60;;
12437;SDS011;6283;51.330;12.374;2023-02-18T14:50:47;0.63;;;0.63;;
12437;SDS011;6283;51.330;12.374;2023-02-18T14:53:16;0.87;;;0.80;;
12437;SDS011;6283;51.330;12.374;2023-02-18T14:55:48;0.70;;;0.60;;
12437;SDS011;6283;51.330;12.374;2023-02-18T14:58:29;3.40;;;0.67;;
12437;SDS011;6283;51.330;12.374;2023-02-18T15:01:16;0.43;;;0.43;;
12437;SDS011;6283;51.330;12.374;2023-02-18T15:03:42;0.57;;;0.57;;
12437;SDS011;6283;51.330;12.374;2023-02-18T15:06:21;0.83;;;0.70;;
12437;SDS011;6283;51.330;12.374;2023-02-18T15:08:54;1.07;;;0.60;;
12437;SDS011;6283;51.330;12.374;2023-02-18T15:11:21;0.60;;;0.60;;
12437;SDS011;6283;51.330;12.374;2023-02-18T15:14:00;0.63;;;0.57;;
12437;SDS011;6283;51.330;12.374;2023-02-18T15:16:32;1.80;;;0.90;;
12437;SDS011;6283;51.330;12.374;2023-02-18T15:19:02;0.93;;;0.60;;
12437;SDS011;6283;51.330;12.374;2023-02-18T15:21:32;0.80;;;0.70;;
12437;SDS011;6283;51.330;12.374;2023-02-18T15:24:04;0.60;;;0.57;;
12437;SDS011;6283;51.330;12.374;2023-02-18T15:26:41;0.60;;;0.60;;
12437;SDS011;6283;51.330;12.374;2023-02-18T15:29:14;0.60;;;0.60;;
12437;SDS011;6283;51.330;12.374;2023-02-18T15:31:45;1.07;;;0.70;;
12437;SDS011;6283;51.330;12.374;2023-02-18T15:34:28;1.33;;;1.20;;
12437;SDS011;6283;51.330;12.374;2023-02-18T15:36:59;2.00;;;0.70;;
12437;SDS011;6283;51.330;12.374;2023-02-18T15:39:26;0.70;;;0.70;;
12437;SDS011;6283;51.330;12.374;2023-02-18T15:41:53;2.00;;;0.60;;
12437;SDS011;6283;51.330;12.374;2023-02-18T15:44:22;0.90;;;0.90;;
12437;SDS011;6283;51.330;12.374;2023-02-18T15:46:51;1.80;;;0.67;;
12437;SDS011;6283;51.330;12.374;2023-02-18T15:49:19;1.33;;;0.70;;
12437;SDS011;6283;51.330;12.374;2023-02-18T15:51:46;0.50;;;0.50;;
12437;SDS011;6283;51.330;12.374;2023-02-18T15:54:17;0.97;;;0.57;;
12437;SDS011;6283;51.330;12.374;2023-02-18T15:56:48;1.50;;;0.60;;
12437;SDS011;6283;51.330;12.374;2023-02-18T15:59:17;0.50;;;0.50;;
12437;SDS011;6283;51.330;12.374;2023-02-18T16:01:49;1.50;;;0.53;;
12437;SDS011;6283;51.330;12.374;2023-02-18T16:04:19;0.87;;;0.60;;
12437;SDS011;6283;51.330;12.374;2023-02-18T16:06:47;0.90;;;0.90;;
12437;SDS011;6283;51.330;12.374;2023-02-18T16:09:17;0.60;;;0.47;;
12437;SDS011;6283;51.330;12.374;2023-02-18T16:11:52;0.50;;;0.50;;
12437;SDS011;6283;51.330;12.374;2023-02-18T16:19:53;0.70;;;0.67;;
12437;SDS011;6283;51.330;12.374;2023-02-18T16:22:25;0.37;;;0.37;;
12437;SDS011;6283;51.330;12.374;2023-02-18T16:24:58;0.53;;;0.53;;
12437;SDS011;6283;51.330;12.374;2023-02-18T16:27:30;1.13;;;0.60;;
12437;SDS011;6283;51.330;12.374;2023-02-18T16:30:02;0.50;;;0.50;;
12437;SDS011;6283;51.330;12.374;2023-02-18T16:32:38;0.63;;;0.63;;
12437;SDS011;6283;51.330;12.374;2023-02-18T16:35:04;0.67;;;0.60;;
12437;SDS011;6283;51.330;12.374;2023-02-18T16:37:30;1.97;;;0.73;;
12437;SDS011;6283;51.330;12.374;2023-02-18T16:42:57;0.60;;;0.60;;
12437;SDS011;6283;51.330;12.374;2023-02-18T16:45:37;2.57;;;0.97;;
12437;SDS011;6283;51.330;12.374;2023-02-18T16:48:05;1.03;;;0.70;;
12437;SDS011;6283;51.330;12.374;2023-02-18T16:50:35;0.77;;;0.77;;
12437;SDS011;6283;51.330;12.374;2023-02-18T16:53:02;1.57;;;0.80;;
12437;SDS011;6283;51.330;12.374;2023-02-18T16:55:27;3.83;;;0.80;;
12437;SDS011;6283;51.330;12.374;2023-02-18T16:57:54;0.70;;;0.70;;
12437;SDS011;6283;51.330;12.374;2023-02-18T17:00:21;0.70;;;0.70;;
12437;SDS011;6283;51.330;12.374;2023-02-18T17:02:48;1.07;;;0.80;;
12437;SDS011;6283;51.330;12.374;2023-02-18T17:05:17;0.70;;;0.70;;
12437;SDS011;6283;51.330;12.374;2023-02-18T17:07:44;0.70;;;0.70;;
12437;SDS011;6283;51.330;12.374;2023-02-18T17:10:10;1.60;;;0.80;;
12437;SDS011;6283;51.330;12.374;2023-02-18T17:12:37;0.70;;;0.70;;
12437;SDS011;6283;51.330;12.374;2023-02-18T17:15:29;0.80;;;0.80;;
12437;SDS011;6283;51.330;12.374;2023-02-18T17:17:58;0.70;;;0.70;;
12437;SDS011;6283;51.330;12.374;2023-02-18T17:20:26;0.73;;;0.73;;
12437;SDS011;6283;51.330;12.374;2023-02-18T17:22:53;1.00;;;1.00;;
12437;SDS011;6283;51.330;12.374;2023-02-18T17:25:23;1.00;;;0.90;;